sensor_id;sensor_type;location;lat;lon;timestamp;P1;durP1;ratioP1;P2;durP2;ratioP2
13411;SDS011;67102;51.666;6.880;2023-03-04T00:00:10;5.47;;;2.00;;
13411;SDS011;67102;51.666;6.880;2023-03-04T00:02:37;4.10;;;1.60;;
13411;SDS011;67102;51.666;6.880;2023-03-04T00:05:03;4.80;;;1.67;;
13411;SDS011;67102;51.666;6.880;2023-03-04T00:07:31;4.40;;;1.50;;
13411;SDS011;67102;51.666;6.880;2023-03-04T00:09:56;8.20;;;2.30;;
13411;SDS011;67102;51.666;6.880;2023-03-04T00:12:22;5.00;;;1.70;;
13411;SDS011;67102;51.666;6.880;2023-03-04T00:14:48;3.80;;;1.60;;
13411;SDS011;67102;51.666;6.880;2023-03-04T00:17:16;4.83;;;1.90;;
13411;SDS011;67102;51.666;6.880;2023-03-04T00:19:41;6.03;;;1.90;;
13411;SDS011;67102;51.666;6.880;2023-03-04T00:22:07;3.73;;;1.57;;
13411;SDS011;67102;51.666;6.880;2023-03-04T00:24:34;6.63;;;1.97;;
13411;SDS011;67102;51.666;6.880;2023-03-04T00:26:59;4.60;;;1.70;;
13411;SDS011;67102;51.666;6.880;2023-03-04T00:29:25;4.13;;;1.70;;
13411;SDS011;67102;51.666;6.880;2023-03-04T00:31:52;6.53;;;1.63;;
13411;SDS011;67102;51.666;6.880;2023-03-04T00:34:19;5.00;;;1.80;;
13411;SDS011;67102;51.666;6.880;2023-03-04T00:36:45;7.17;;;1.70;;
13411;SDS011;67102;51.666;6.880;2023-03-04T00:39:11;6.80;;;1.80;;
13411;SDS011;67102;51.666;6.880;2023-03-04T00:41:37;4.03;;;1.63;;
13411;SDS011;67102;51.666;6.880;2023-03-04T00:44:04;4.57;;;1.53;;
13411;SDS011;67102;51.666;6.880;2023-03-04T00:46:30;6.03;;;1.77;;
13411;SDS011;67102;51.666;6.880;2023-03-04T00:48:56;6.63;;;1.70;;
13411;SDS011;67102;51.666;6.880;2023-03-04T00:51:23;5.57;;;1.63;;
13411;SDS011;67102;51.666;6.880;2023-03-04T00:53:49;3.40;;;1.70;;
13411;SDS011;67102;51.666;6.880;2023-03-04T00:56:15;5.03;;;2.00;;
13411;SDS011;67102;51.666;6.880;2023-03-04T00:58:41;4.67;;;1.53;;
13411;SDS011;67102;51.666;6.880;2023-03-04T01:01:07;5.90;;;1.43;;
13411;SDS011;67102;51.666;6.880;2023-03-04T01:03:32;5.30;;;1.97;;
13411;SDS011;67102;51.666;6.880;2023-03-04T01:05:58;5.57;;;1.60;;
13411;SDS011;67102;51.666;6.880;2023-03-04T01:08:26;6.57;;;2.00;;
13411;SDS011;67102;51.666;6.880;2023-03-04T01:10:52;4.47;;;1.83;;
13411;SDS011;67102;51.666;6.880;2023-03-04T01:13:18;3.83;;;1.67;;
13411;SDS011;67102;51.666;6.880;2023-03-04T01:15:44;7.60;;;1.93;;
13411;SDS011;67102;51.666;6.880;2023-03-04T01:18:10;6.43;;;1.70;;
13411;SDS011;67102;51.666;6.880;2023-03-04T01:20:36;8.60;;;1.77;;
13411;SDS011;67102;51.666;6.880;2023-03-04T01:23:02;4.63;;;1.60;;
13411;SDS011;67102;51.666;6.880;2023-03-04T01:25:29;3.77;;;1.90;;
13411;SDS011;67102;51.666;6.880;2023-03-04T01:27:55;6.77;;;1.70;;
13411;SDS011;67102;51.666;6.880;2023-03-04T01:30:21;5.80;;;1.60;;
13411;SDS011;67102;51.666;6.880;2023-03-04T01:32:47;5.93;;;1.93;;
13411;SDS011;67102;51.666;6.880;2023-03-04T01:35:13;5.23;;;1.70;;
13411;SDS011;67102;51.666;6.880;2023-03-04T01:37:39;8.07;;;2.07;;
13411;SDS011;67102;51.666;6.880;2023-03-04T01:40:05;6.33;;;1.77;;
13411;SDS011;67102;51.666;6.880;2023-03-04T01:42:34;6.27;;;1.87;;
13411;SDS011;67102;51.666;6.880;2023-03-04T01:45:01;10.53;;;2.07;;
13411;SDS011;67102;51.666;6.880;2023-03-04T01:47:28;6.63;;;1.80;;
13411;SDS011;67102;51.666;6.880;2023-03-04T01:49:57;4.67;;;1.73;;
13411;SDS011;67102;51.666;6.880;2023-03-04T01:52:27;4.20;;;1.70;;
13411;SDS011;67102;51.666;6.880;2023-03-04T01:54:53;3.23;;;1.43;;
13411;SDS011;67102;51.666;6.880;2023-03-04T01:57:20;4.57;;;1.50;;
13411;SDS011;67102;51.666;6.880;2023-03-04T02:02:44;3.10;;;1.37;;
13411;SDS011;67102;51.666;6.880;2023-03-04T02:05:10;6.83;;;1.97;;
13411;SDS011;67102;51.666;6.880;2023-03-04T02:07:37;4.40;;;1.80;;
13411;SDS011;67102;51.666;6.880;2023-03-04T02:10:03;5.40;;;1.70;;
13411;SDS011;67102;51.666;6.880;2023-03-04T02:12:30;3.97;;;1.53;;
13411;SDS011;67102;51.666;6.880;2023-03-04T02:14:57;6.17;;;1.50;;
13411;SDS011;67102;51.666;6.880;2023-03-04T02:17:25;2.00;;;1.27;;
13411;SDS011;67102;51.666;6.880;2023-03-04T02:19:57;5.60;;;1.50;;
13411;SDS011;67102;51.666;6.880;2023-03-04T02:22:29;6.67;;;1.50;;
13411;SDS011;67102;51.666;6.880;2023-03-04T02:24:58;4.57;;;1.47;;
13411;SDS011;67102;51.666;6.880;2023-03-04T02:27:29;4.23;;;1.37;;
13411;SDS011;67102;51.666;6.880;2023-03-04T02:29:56;6.37;;;1.67;;
13411;SDS011;67102;51.666;6.880;2023-03-04T02:32:22;5.97;;;1.30;;
13411;SDS011;67102;51.666;6.880;2023-03-04T02:34:48;4.27;;;1.50;;
13411;SDS011;67102;51.666;6.880;2023-03-04T02:37:15;3.23;;;1.43;;
13411;SDS011;67102;51.666;6.880;2023-03-04T02:39:43;5.97;;;1.47;;
13411;SDS011;67102;51.666;6.880;2023-03-04T02:42:11;6.73;;;1.47;;
13411;SDS011;67102;51.666;6.880;2023-03-04T02:44:39;4.57;;;1.80;;
13411;SDS011;67102;51.666;6.880;2023-03-04T02:47:08;3.70;;;1.60;;
13411;SDS011;67102;51.666;6.880;2023-03-04T02:49:36;5.30;;;1.60;;
13411;SDS011;67102;51.666;6.880;2023-03-04T02:52:05;7.57;;;1.57;;
13411;SDS011;67102;51.666;6.880;2023-03-04T02:54:36;4.83;;;1.53;;
13411;SDS011;67102;51.666;6.880;2023-03-04T02:57:03;6.30;;;2.10;;
13411;SDS011;67102;51.666;6.880;2023-03-04T02:59:31;7.63;;;1.87;;
13411;SDS011;67102;51.666;6.880;2023-03-04T03:01:59;3.60;;;1.30;;
13411;SDS011;67102;51.666;6.880;2023-03-04T03:04:25;7.07;;;1.67;;
13411;SDS011;67102;51.666;6.880;2023-03-04T03:06:51;6.97;;;1.60;;
13411;SDS011;67102;51.666;6.880;2023-03-04T03:09:17;3.00;;;1.43;;
13411;SDS011;67102;51.666;6.880;2023-03-04T03:11:44;3.70;;;1.37;;
13411;SDS011;67102;51.666;6.880;2023-03-04T03:14:10;3.30;;;1.33;;
13411;SDS011;67102;51.666;6.880;2023-03-04T03:16:36;5.30;;;1.70;;
13411;SDS011;67102;51.666;6.880;2023-03-04T03:19:03;5.77;;;1.73;;
13411;SDS011;67102;51.666;6.880;2023-03-04T03:21:29;4.20;;;1.47;;
13411;SDS011;67102;51.666;6.880;2023-03-04T03:23:56;3.87;;;1.40;;
13411;SDS011;67102;51.666;6.880;2023-03-04T03:26:22;6.90;;;1.27;;
13411;SDS011;67102;51.666;6.880;2023-03-04T03:28:48;4.67;;;1.73;;
13411;SDS011;67102;51.666;6.880;2023-03-04T03:31:14;4.70;;;1.47;;
13411;SDS011;67102;51.666;6.880;2023-03-04T03:33:40;3.87;;;1.40;;
13411;SDS011;67102;51.666;6.880;2023-03-04T03:36:08;4.83;;;1.77;;
13411;SDS011;67102;51.666;6.880;2023-03-04T03:38:34;2.30;;;1.40;;
13411;SDS011;67102;51.666;6.880;2023-03-04T03:41:00;3.83;;;1.40;;
13411;SDS011;67102;51.666;6.880;2023-03-04T03:43:26;6.13;;;1.57;;
13411;SDS011;67102;51.666;6.880;2023-03-04T03:45:52;3.27;;;1.40;;
13411;SDS011;67102;51.666;6.880;2023-03-04T03:48:18;4.73;;;1.40;;
13411;SDS011;67102;51.666;6.880;2023-03-04T03:50:44;4.17;;;1.40;;
13411;SDS011;67102;51.666;6.880;2023-03-04T03:53:11;5.33;;;1.43;;
13411;SDS011;67102;51.666;6.880;2023-03-04T03:55:37;3.23;;;1.20;;
13411;SDS011;67102;51.666;6.880;2023-03-04T03:58:03;5.27;;;1.80;;
13411;SDS011;67102;51.666;6.880;2023-03-04T04:00:29;4.17;;;1.27;;
13411;SDS011;67102;51.666;6.880;2023-03-04T04:02:55;5.13;;;1.50;;
13411;SDS011;67102;51.666;6.880;2023-03-04T04:05:24;3.47;;;1.10;;
13411;SDS011;67102;51.666;6.880;2023-03-04T04:07:50;5.17;;;1.50;;
13411;SDS011;67102;51.666;6.880;2023-03-04T04:10:17;3.20;;;1.30;;
13411;SDS011;67102;51.666;6.880;2023-03-04T04:12:43;5.77;;;1.10;;
13411;SDS011;67102;51.666;6.880;2023-03-04T04:15:09;6.30;;;1.50;;
13411;SDS011;67102;51.666;6.880;2023-03-04T04:17:36;2.70;;;1.20;;
13411;SDS011;67102;51.666;6.880;2023-03-04T04:20:02;5.47;;;1.20;;
13411;SDS011;67102;51.666;6.880;2023-03-04T04:22:29;4.03;;;1.30;;
13411;SDS011;67102;51.666;6.880;2023-03-04T04:24:55;4.43;;;1.20;;
13411;SDS011;67102;51.666;6.880;2023-03-04T04:27:23;2.53;;;1.20;;
13411;SDS011;67102;51.666;6.880;2023-03-04T04:29:49;4.27;;;1.23;;
13411;SDS011;67102;51.666;6.880;2023-03-04T04:32:14;5.60;;;1.50;;
13411;SDS011;67102;51.666;6.880;2023-03-04T04:34:40;3.60;;;1.23;;
13411;SDS011;67102;51.666;6.880;2023-03-04T04:37:06;3.83;;;1.43;;
13411;SDS011;67102;51.666;6.880;2023-03-04T04:39:32;4.97;;;1.50;;
13411;SDS011;67102;51.666;6.880;2023-03-04T04:41:58;2.57;;;1.10;;
13411;SDS011;67102;51.666;6.880;2023-03-04T04:44:25;2.47;;;1.13;;
13411;SDS011;67102;51.666;6.880;2023-03-04T04:46:51;3.60;;;1.30;;
13411;SDS011;67102;51.666;6.880;2023-03-04T04:49:17;4.47;;;0.97;;
13411;SDS011;67102;51.666;6.880;2023-03-04T04:51:44;3.37;;;1.17;;
13411;SDS011;67102;51.666;6.880;2023-03-04T04:54:10;3.43;;;1.07;;
13411;SDS011;67102;51.666;6.880;2023-03-04T04:56:38;4.13;;;1.30;;
13411;SDS011;67102;51.666;6.880;2023-03-04T04:59:04;3.13;;;1.23;;
13411;SDS011;67102;51.666;6.880;2023-03-04T05:01:31;2.50;;;1.33;;
13411;SDS011;67102;51.666;6.880;2023-03-04T05:03:58;4.03;;;1.40;;
13411;SDS011;67102;51.666;6.880;2023-03-04T05:06:24;6.60;;;1.43;;
13411;SDS011;67102;51.666;6.880;2023-03-04T05:08:50;4.07;;;1.50;;
13411;SDS011;67102;51.666;6.880;2023-03-04T05:11:16;2.47;;;1.20;;
13411;SDS011;67102;51.666;6.880;2023-03-04T05:13:43;3.90;;;1.53;;
13411;SDS011;67102;51.666;6.880;2023-03-04T05:16:09;4.37;;;1.40;;
13411;SDS011;67102;51.666;6.880;2023-03-04T05:18:36;5.67;;;1.50;;
13411;SDS011;67102;51.666;6.880;2023-03-04T05:21:04;2.57;;;1.37;;
13411;SDS011;67102;51.666;6.880;2023-03-04T05:23:31;4.93;;;1.47;;
13411;SDS011;67102;51.666;6.880;2023-03-04T05:25:59;3.33;;;1.30;;
13411;SDS011;67102;51.666;6.880;2023-03-04T05:28:25;3.43;;;1.20;;
13411;SDS011;67102;51.666;6.880;2023-03-04T05:30:51;3.30;;;1.00;;
13411;SDS011;67102;51.666;6.880;2023-03-04T05:33:18;2.40;;;1.00;;
13411;SDS011;67102;51.666;6.880;2023-03-04T05:35:47;2.43;;;0.87;;
13411;SDS011;67102;51.666;6.880;2023-03-04T05:38:14;2.87;;;1.30;;
13411;SDS011;67102;51.666;6.880;2023-03-04T05:40:42;2.97;;;0.93;;
13411;SDS011;67102;51.666;6.880;2023-03-04T05:43:09;3.30;;;1.40;;
13411;SDS011;67102;51.666;6.880;2023-03-04T05:45:36;4.00;;;1.37;;
13411;SDS011;67102;51.666;6.880;2023-03-04T05:48:02;2.80;;;1.10;;
13411;SDS011;67102;51.666;6.880;2023-03-04T05:50:29;2.30;;;1.00;;
13411;SDS011;67102;51.666;6.880;2023-03-04T05:52:57;5.07;;;1.20;;
13411;SDS011;67102;51.666;6.880;2023-03-04T05:55:23;2.30;;;1.37;;
13411;SDS011;67102;51.666;6.880;2023-03-04T05:57:49;2.87;;;1.30;;
13411;SDS011;67102;51.666;6.880;2023-03-04T06:00:15;6.23;;;1.30;;
13411;SDS011;67102;51.666;6.880;2023-03-04T06:02:43;3.67;;;1.20;;
13411;SDS011;67102;51.666;6.880;2023-03-04T06:05:09;3.10;;;1.17;;
13411;SDS011;67102;51.666;6.880;2023-03-04T06:07:37;3.00;;;0.90;;
13411;SDS011;67102;51.666;6.880;2023-03-04T06:10:05;3.10;;;1.03;;
13411;SDS011;67102;51.666;6.880;2023-03-04T06:12:32;4.80;;;1.10;;
13411;SDS011;67102;51.666;6.880;2023-03-04T06:14:58;1.87;;;1.10;;
13411;SDS011;67102;51.666;6.880;2023-03-04T06:17:24;3.33;;;1.70;;
13411;SDS011;67102;51.666;6.880;2023-03-04T06:19:50;4.53;;;1.30;;
13411;SDS011;67102;51.666;6.880;2023-03-04T06:22:16;1.87;;;1.20;;
13411;SDS011;67102;51.666;6.880;2023-03-04T06:24:41;3.43;;;1.30;;
13411;SDS011;67102;51.666;6.880;2023-03-04T06:27:09;2.37;;;1.30;;
13411;SDS011;67102;51.666;6.880;2023-03-04T06:29:35;4.03;;;1.17;;
13411;SDS011;67102;51.666;6.880;2023-03-04T06:32:01;4.50;;;1.60;;
13411;SDS011;67102;51.666;6.880;2023-03-04T06:34:27;3.37;;;1.40;;
13411;SDS011;67102;51.666;6.880;2023-03-04T06:36:53;3.07;;;1.30;;
13411;SDS011;67102;51.666;6.880;2023-03-04T06:39:19;3.73;;;1.30;;
13411;SDS011;67102;51.666;6.880;2023-03-04T06:41:45;4.47;;;1.37;;
13411;SDS011;67102;51.666;6.880;2023-03-04T06:44:13;4.73;;;1.10;;
13411;SDS011;67102;51.666;6.880;2023-03-04T06:46:38;2.40;;;1.30;;
13411;SDS011;67102;51.666;6.880;2023-03-04T06:49:04;1.50;;;1.00;;
13411;SDS011;67102;51.666;6.880;2023-03-04T06:51:30;4.30;;;1.10;;
13411;SDS011;67102;51.666;6.880;2023-03-04T06:53:56;4.03;;;1.27;;
13411;SDS011;67102;51.666;6.880;2023-03-04T06:56:22;3.17;;;1.13;;
13411;SDS011;67102;51.666;6.880;2023-03-04T06:58:48;2.07;;;1.20;;
13411;SDS011;67102;51.666;6.880;2023-03-04T07:01:16;3.77;;;1.40;;
13411;SDS011;67102;51.666;6.880;2023-03-04T07:03:44;2.40;;;1.20;;
13411;SDS011;67102;51.666;6.880;2023-03-04T07:06:12;5.27;;;1.30;;
13411;SDS011;67102;51.666;6.880;2023-03-04T07:08:39;2.70;;;1.27;;
13411;SDS011;67102;51.666;6.880;2023-03-04T07:11:06;3.53;;;0.93;;
13411;SDS011;67102;51.666;6.880;2023-03-04T07:13:32;1.50;;;0.90;;
13411;SDS011;67102;51.666;6.880;2023-03-04T07:15:59;5.50;;;1.50;;
13411;SDS011;67102;51.666;6.880;2023-03-04T07:18:27;2.73;;;1.00;;
13411;SDS011;67102;51.666;6.880;2023-03-04T07:20:53;3.50;;;1.30;;
13411;SDS011;67102;51.666;6.880;2023-03-04T07:23:19;3.70;;;1.20;;
13411;SDS011;67102;51.666;6.880;2023-03-04T07:25:45;6.13;;;1.47;;
13411;SDS011;67102;51.666;6.880;2023-03-04T07:28:12;4.37;;;1.23;;
13411;SDS011;67102;51.666;6.880;2023-03-04T07:30:38;1.90;;;0.93;;
13411;SDS011;67102;51.666;6.880;2023-03-04T07:33:04;3.90;;;1.10;;
13411;SDS011;67102;51.666;6.880;2023-03-04T07:35:32;2.00;;;1.10;;
13411;SDS011;67102;51.666;6.880;2023-03-04T07:37:58;4.80;;;1.13;;
13411;SDS011;67102;51.666;6.880;2023-03-04T07:40:23;4.63;;;1.33;;
13411;SDS011;67102;51.666;6.880;2023-03-04T07:42:50;2.63;;;1.27;;
13411;SDS011;67102;51.666;6.880;2023-03-04T07:45:17;2.77;;;1.03;;
13411;SDS011;67102;51.666;6.880;2023-03-04T07:47:43;2.13;;;1.30;;
13411;SDS011;67102;51.666;6.880;2023-03-04T07:50:10;4.00;;;1.23;;
13411;SDS011;67102;51.666;6.880;2023-03-04T07:52:38;3.77;;;1.10;;
13411;SDS011;67102;51.666;6.880;2023-03-04T07:55:05;4.10;;;1.20;;
13411;SDS011;67102;51.666;6.880;2023-03-04T07:57:32;3.00;;;1.50;;
13411;SDS011;67102;51.666;6.880;2023-03-04T07:59:58;3.37;;;1.30;;
13411;SDS011;67102;51.666;6.880;2023-03-04T08:02:24;2.97;;;1.40;;
13411;SDS011;67102;51.666;6.880;2023-03-04T08:04:50;3.13;;;1.10;;
13411;SDS011;67102;51.666;6.880;2023-03-04T08:07:16;3.47;;;1.20;;
13411;SDS011;67102;51.666;6.880;2023-03-04T08:09:44;4.13;;;1.13;;
13411;SDS011;67102;51.666;6.880;2023-03-04T08:12:10;4.37;;;1.40;;
13411;SDS011;67102;51.666;6.880;2023-03-04T08:14:35;2.80;;;1.20;;
13411;SDS011;67102;51.666;6.880;2023-03-04T08:17:01;3.13;;;1.40;;
13411;SDS011;67102;51.666;6.880;2023-03-04T08:19:27;3.27;;;1.30;;
13411;SDS011;67102;51.666;6.880;2023-03-04T08:21:53;2.30;;;1.20;;
13411;SDS011;67102;51.666;6.880;2023-03-04T08:24:19;2.77;;;1.13;;
13411;SDS011;67102;51.666;6.880;2023-03-04T08:26:47;2.77;;;1.17;;
13411;SDS011;67102;51.666;6.880;2023-03-04T08:29:16;2.03;;;0.97;;
13411;SDS011;67102;51.666;6.880;2023-03-04T08:31:44;2.60;;;1.00;;
13411;SDS011;67102;51.666;6.880;2023-03-04T08:34:11;1.67;;;1.10;;
13411;SDS011;67102;51.666;6.880;2023-03-04T08:36:37;4.60;;;1.50;;
13411;SDS011;67102;51.666;6.880;2023-03-04T08:39:03;3.63;;;1.00;;
13411;SDS011;67102;51.666;6.880;2023-03-04T08:41:30;3.73;;;1.73;;
13411;SDS011;67102;51.666;6.880;2023-03-04T08:43:58;3.07;;;1.60;;
13411;SDS011;67102;51.666;6.880;2023-03-04T08:46:24;3.27;;;1.23;;
13411;SDS011;67102;51.666;6.880;2023-03-04T08:48:50;3.00;;;1.10;;
13411;SDS011;67102;51.666;6.880;2023-03-04T08:51:16;1.13;;;1.00;;
13411;SDS011;67102;51.666;6.880;2023-03-04T08:53:42;3.80;;;1.10;;
13411;SDS011;67102;51.666;6.880;2023-03-04T08:56:09;1.50;;;1.00;;
13411;SDS011;67102;51.666;6.880;2023-03-04T08:58:37;1.63;;;0.83;;
13411;SDS011;67102;51.666;6.880;2023-03-04T09:01:06;1.47;;;1.00;;
13411;SDS011;67102;51.666;6.880;2023-03-04T09:03:34;2.77;;;1.00;;
13411;SDS011;67102;51.666;6.880;2023-03-04T09:06:01;3.63;;;1.20;;
13411;SDS011;67102;51.666;6.880;2023-03-04T09:08:27;2.37;;;1.10;;
13411;SDS011;67102;51.666;6.880;2023-03-04T09:10:54;1.93;;;1.00;;
13411;SDS011;67102;51.666;6.880;2023-03-04T09:13:20;2.83;;;1.10;;
13411;SDS011;67102;51.666;6.880;2023-03-04T09:15:48;4.13;;;1.00;;
13411;SDS011;67102;51.666;6.880;2023-03-04T09:18:17;2.97;;;1.20;;
13411;SDS011;67102;51.666;6.880;2023-03-04T09:20:46;4.73;;;1.20;;
13411;SDS011;67102;51.666;6.880;2023-03-04T09:23:13;2.33;;;0.80;;
13411;SDS011;67102;51.666;6.880;2023-03-04T09:25:42;3.97;;;0.97;;
13411;SDS011;67102;51.666;6.880;2023-03-04T09:28:09;2.17;;;0.83;;
13411;SDS011;67102;51.666;6.880;2023-03-04T09:30:36;1.37;;;0.77;;
13411;SDS011;67102;51.666;6.880;2023-03-04T09:33:02;1.60;;;0.90;;
13411;SDS011;67102;51.666;6.880;2023-03-04T09:35:30;2.03;;;1.03;;
13411;SDS011;67102;51.666;6.880;2023-03-04T09:37:56;2.17;;;0.90;;
13411;SDS011;67102;51.666;6.880;2023-03-04T09:40:25;1.90;;;1.07;;
13411;SDS011;67102;51.666;6.880;2023-03-04T09:42:55;1.30;;;0.80;;
13411;SDS011;67102;51.666;6.880;2023-03-04T09:45:26;2.13;;;0.90;;
13411;SDS011;67102;51.666;6.880;2023-03-04T09:47:59;1.67;;;0.87;;
13411;SDS011;67102;51.666;6.880;2023-03-04T09:50:26;2.07;;;1.03;;
13411;SDS011;67102;51.666;6.880;2023-03-04T09:53:02;2.23;;;1.00;;
13411;SDS011;67102;51.666;6.880;2023-03-04T09:55:39;1.90;;;1.00;;
13411;SDS011;67102;51.666;6.880;2023-03-04T09:58:11;1.40;;;1.00;;
13411;SDS011;67102;51.666;6.880;2023-03-04T10:00:51;2.37;;;0.90;;
13411;SDS011;67102;51.666;6.880;2023-03-04T10:03:21;1.77;;;0.97;;
13411;SDS011;67102;51.666;6.880;2023-03-04T10:05:54;1.70;;;0.67;;
13411;SDS011;67102;51.666;6.880;2023-03-04T10:11:12;2.93;;;0.93;;
13411;SDS011;67102;51.666;6.880;2023-03-04T10:13:43;1.47;;;0.70;;
13411;SDS011;67102;51.666;6.880;2023-03-04T10:16:20;1.23;;;0.73;;
13411;SDS011;67102;51.666;6.880;2023-03-04T10:18:53;1.47;;;0.57;;
13411;SDS011;67102;51.666;6.880;2023-03-04T10:21:28;1.10;;;0.73;;
13411;SDS011;67102;51.666;6.880;2023-03-04T10:23:56;0.77;;;0.60;;
13411;SDS011;67102;51.666;6.880;2023-03-04T10:26:24;1.60;;;0.80;;
13411;SDS011;67102;51.666;6.880;2023-03-04T10:28:55;2.47;;;0.63;;
13411;SDS011;67102;51.666;6.880;2023-03-04T10:31:26;1.47;;;0.70;;
13411;SDS011;67102;51.666;6.880;2023-03-04T10:33:57;2.60;;;0.80;;
13411;SDS011;67102;51.666;6.880;2023-03-04T10:36:37;1.37;;;0.80;;
13411;SDS011;67102;51.666;6.880;2023-03-04T10:39:20;1.13;;;0.73;;
13411;SDS011;67102;51.666;6.880;2023-03-04T10:41:54;2.00;;;0.80;;
13411;SDS011;67102;51.666;6.880;2023-03-04T10:44:23;2.10;;;1.23;;
13411;SDS011;67102;51.666;6.880;2023-03-04T10:46:52;1.80;;;1.07;;
13411;SDS011;67102;51.666;6.880;2023-03-04T10:49:19;1.17;;;0.90;;
13411;SDS011;67102;51.666;6.880;2023-03-04T10:51:48;1.13;;;0.90;;
13411;SDS011;67102;51.666;6.880;2023-03-04T10:54:24;1.77;;;1.13;;
13411;SDS011;67102;51.666;6.880;2023-03-04T10:56:55;1.73;;;1.03;;
13411;SDS011;67102;51.666;6.880;2023-03-04T10:59:34;2.07;;;1.03;;
13411;SDS011;67102;51.666;6.880;2023-03-04T11:02:24;1.10;;;0.90;;
13411;SDS011;67102;51.666;6.880;2023-03-04T11:04:56;2.30;;;1.00;;
13411;SDS011;67102;51.666;6.880;2023-03-04T11:07:43;1.87;;;0.80;;
13411;SDS011;67102;51.666;6.880;2023-03-04T11:10:15;1.43;;;1.00;;
13411;SDS011;67102;51.666;6.880;2023-03-04T11:12:47;2.83;;;1.00;;
13411;SDS011;67102;51.666;6.880;2023-03-04T11:15:18;1.20;;;0.83;;
13411;SDS011;67102;51.666;6.880;2023-03-04T11:17:47;1.40;;;1.00;;
13411;SDS011;67102;51.666;6.880;2023-03-04T11:20:22;2.83;;;1.00;;
13411;SDS011;67102;51.666;6.880;2023-03-04T11:22:59;1.43;;;1.00;;
13411;SDS011;67102;51.666;6.880;2023-03-04T11:25:30;1.83;;;1.00;;
13411;SDS011;67102;51.666;6.880;2023-03-04T11:28:00;2.40;;;1.00;;
13411;SDS011;67102;51.666;6.880;2023-03-04T11:30:32;1.17;;;0.90;;
13411;SDS011;67102;51.666;6.880;2023-03-04T11:33:07;1.73;;;0.90;;
13411;SDS011;67102;51.666;6.880;2023-03-04T11:35:42;1.80;;;0.80;;
13411;SDS011;67102;51.666;6.880;2023-03-04T11:38:19;2.03;;;1.07;;
13411;SDS011;67102;51.666;6.880;2023-03-04T11:40:48;1.30;;;0.87;;
13411;SDS011;67102;51.666;6.880;2023-03-04T11:43:20;1.10;;;0.87;;
13411;SDS011;67102;51.666;6.880;2023-03-04T11:45:54;1.57;;;0.97;;
13411;SDS011;67102;51.666;6.880;2023-03-04T11:49:02;1.33;;;1.13;;
13411;SDS011;67102;51.666;6.880;2023-03-04T11:51:43;1.53;;;1.23;;
13411;SDS011;67102;51.666;6.880;2023-03-04T11:54:17;3.20;;;1.37;;
13411;SDS011;67102;51.666;6.880;2023-03-04T11:56:56;1.77;;;0.97;;
13411;SDS011;67102;51.666;6.880;2023-03-04T11:59:34;1.40;;;1.30;;
13411;SDS011;67102;51.666;6.880;2023-03-04T12:02:17;1.30;;;1.20;;
13411;SDS011;67102;51.666;6.880;2023-03-04T12:10:41;1.20;;;0.90;;
13411;SDS011;67102;51.666;6.880;2023-03-04T12:13:16;1.33;;;1.03;;
13411;SDS011;67102;51.666;6.880;2023-03-04T12:16:10;1.47;;;0.90;;
13411;SDS011;67102;51.666;6.880;2023-03-04T12:18:53;1.43;;;0.80;;
13411;SDS011;67102;51.666;6.880;2023-03-04T12:21:38;0.80;;;0.80;;
13411;SDS011;67102;51.666;6.880;2023-03-04T12:24:43;1.77;;;1.10;;
13411;SDS011;67102;51.666;6.880;2023-03-04T12:27:26;0.70;;;0.70;;
13411;SDS011;67102;51.666;6.880;2023-03-04T12:29:57;0.80;;;0.80;;
13411;SDS011;67102;51.666;6.880;2023-03-04T12:32:29;1.27;;;0.93;;
13411;SDS011;67102;51.666;6.880;2023-03-04T12:35:07;2.10;;;0.97;;
13411;SDS011;67102;51.666;6.880;2023-03-04T12:37:49;0.90;;;0.90;;
13411;SDS011;67102;51.666;6.880;2023-03-04T12:40:29;1.87;;;0.90;;
13411;SDS011;67102;51.666;6.880;2023-03-04T12:43:07;1.90;;;1.03;;
13411;SDS011;67102;51.666;6.880;2023-03-04T12:45:52;1.33;;;0.90;;
13411;SDS011;67102;51.666;6.880;2023-03-04T12:48:27;2.80;;;1.10;;
13411;SDS011;67102;51.666;6.880;2023-03-04T12:51:13;1.70;;;1.00;;
13411;SDS011;67102;51.666;6.880;2023-03-04T12:53:55;0.87;;;0.87;;
13411;SDS011;67102;51.666;6.880;2023-03-04T12:56:36;1.57;;;1.10;;
13411;SDS011;67102;51.666;6.880;2023-03-04T12:59:11;2.07;;;1.00;;
13411;SDS011;67102;51.666;6.880;2023-03-04T13:01:40;1.17;;;0.80;;
13411;SDS011;67102;51.666;6.880;2023-03-04T13:04:13;1.13;;;0.90;;
13411;SDS011;67102;51.666;6.880;2023-03-04T13:06:48;1.30;;;0.93;;
13411;SDS011;67102;51.666;6.880;2023-03-04T13:09:30;0.90;;;0.90;;
13411;SDS011;67102;51.666;6.880;2023-03-04T13:12:03;1.03;;;1.00;;
13411;SDS011;67102;51.666;6.880;2023-03-04T13:14:40;2.43;;;1.13;;
13411;SDS011;67102;51.666;6.880;2023-03-04T13:17:52;1.10;;;0.87;;
13411;SDS011;67102;51.666;6.880;2023-03-04T13:20:21;0.87;;;0.87;;
13411;SDS011;67102;51.666;6.880;2023-03-04T13:22:57;1.83;;;0.87;;
13411;SDS011;67102;51.666;6.880;2023-03-04T13:25:37;2.27;;;1.00;;
13411;SDS011;67102;51.666;6.880;2023-03-04T13:28:11;2.03;;;0.73;;
13411;SDS011;67102;51.666;6.880;2023-03-04T13:33:47;0.90;;;0.90;;
13411;SDS011;67102;51.666;6.880;2023-03-04T13:39:23;1.60;;;0.70;;
13411;SDS011;67102;51.666;6.880;2023-03-04T13:41:54;1.03;;;0.93;;
13411;SDS011;67102;51.666;6.880;2023-03-04T13:44:33;1.93;;;0.87;;
13411;SDS011;67102;51.666;6.880;2023-03-04T13:47:29;1.20;;;0.90;;
13411;SDS011;67102;51.666;6.880;2023-03-04T13:50:21;2.00;;;0.80;;
13411;SDS011;67102;51.666;6.880;2023-03-04T13:52:52;1.37;;;1.13;;
13411;SDS011;67102;51.666;6.880;2023-03-04T13:55:35;1.30;;;0.90;;
13411;SDS011;67102;51.666;6.880;2023-03-04T13:58:11;1.57;;;0.90;;
13411;SDS011;67102;51.666;6.880;2023-03-04T14:00:49;2.53;;;1.00;;
13411;SDS011;67102;51.666;6.880;2023-03-04T14:03:21;2.73;;;0.80;;
13411;SDS011;67102;51.666;6.880;2023-03-04T14:06:09;2.17;;;0.80;;
13411;SDS011;67102;51.666;6.880;2023-03-04T14:08:41;1.63;;;0.90;;
13411;SDS011;67102;51.666;6.880;2023-03-04T14:11:09;1.83;;;0.80;;
13411;SDS011;67102;51.666;6.880;2023-03-04T14:13:38;1.33;;;0.87;;
13411;SDS011;67102;51.666;6.880;2023-03-04T14:16:05;1.90;;;0.70;;
13411;SDS011;67102;51.666;6.880;2023-03-04T14:18:32;1.43;;;0.80;;
13411;SDS011;67102;51.666;6.880;2023-03-04T14:20:58;1.87;;;1.00;;
13411;SDS011;67102;51.666;6.880;2023-03-04T14:23:25;2.60;;;0.90;;
13411;SDS011;67102;51.666;6.880;2023-03-04T14:26:02;1.10;;;0.80;;
13411;SDS011;67102;51.666;6.880;2023-03-04T14:28:41;2.83;;;0.80;;
13411;SDS011;67102;51.666;6.880;2023-03-04T14:31:14;1.23;;;1.03;;
13411;SDS011;67102;51.666;6.880;2023-03-04T14:33:44;1.40;;;0.97;;
13411;SDS011;67102;51.666;6.880;2023-03-04T14:36:16;2.93;;;1.10;;
13411;SDS011;67102;51.666;6.880;2023-03-04T14:38:47;3.67;;;1.40;;
13411;SDS011;67102;51.666;6.880;2023-03-04T14:41:17;1.93;;;1.20;;
13411;SDS011;67102;51.666;6.880;2023-03-04T14:43:48;3.43;;;1.10;;
13411;SDS011;67102;51.666;6.880;2023-03-04T14:46:21;2.40;;;1.20;;
13411;SDS011;67102;51.666;6.880;2023-03-04T14:48:55;2.60;;;1.27;;
13411;SDS011;67102;51.666;6.880;2023-03-04T14:51:28;2.87;;;1.30;;
13411;SDS011;67102;51.666;6.880;2023-03-04T14:53:57;2.87;;;1.17;;
13411;SDS011;67102;51.666;6.880;2023-03-04T14:56:26;3.13;;;1.50;;
13411;SDS011;67102;51.666;6.880;2023-03-04T14:58:54;2.00;;;1.10;;
13411;SDS011;67102;51.666;6.880;2023-03-04T15:01:22;3.40;;;1.20;;
13411;SDS011;67102;51.666;6.880;2023-03-04T15:03:58;2.67;;;1.53;;
13411;SDS011;67102;51.666;6.880;2023-03-04T15:06:27;2.43;;;1.20;;
13411;SDS011;67102;51.666;6.880;2023-03-04T15:08:55;2.90;;;1.20;;
13411;SDS011;67102;51.666;6.880;2023-03-04T15:11:25;3.33;;;1.10;;
13411;SDS011;67102;51.666;6.880;2023-03-04T15:13:55;1.50;;;1.10;;
13411;SDS011;67102;51.666;6.880;2023-03-04T15:16:23;3.53;;;1.20;;
13411;SDS011;67102;51.666;6.880;2023-03-04T15:19:00;2.10;;;1.13;;